TAF KSTC
KSTC 280520Z 2806/2906 31010KT P6SM SKC FM282200 26004KT P6SM BKN250 FM290200 15004KT P6SM OVC060=
METAR KSTC
WC KSTC
WS KSTC
WV KSTC